Overstreet, Florida
Current Conditions -  °F | °C
As of 12:53 AM on Friday 28 Nov 2014 (Local Time) from KAAF Reporting Station
Clear Clear  
Wind Chill: 41°   Ceiling: Unl
Heat Index: 47°   Visibility: 10mi
Dew Point: 32°   Wind: 13mph
Humidity: 56%   Direction: 20°NNE
Pressure: 30.37"   Gusts: NA
Location:  29.8451°N, 85.2061°W
Report Text: KAAF 280553Z AUTO 02011KT 10SM CLR 08/00 A3037 RMK AO2 SLP285 T00830000 10128 20083 50001 TSNO
Loading
Personal Weather Stations






























Interactive Weather Map New forecast layout! Learn more

10-Day Weather Forecast

Advertisements
Track Severe Weather on mobile